Time;durP1;ratioP1;P1;durP2;ratioP2;P2;SDS_P1;SDS_P2;PMS_P1;PMS_P2;Temp;Humidity;BMP_temperature;BMP_pressure;BME280_temperature;BME280_humidity;BME280_pressure;Samples;Min_cycle;Max_cycle;Signal;HPM_P1;HPM_P2
2022/08/09 00:00:43;;;;;;;4.05;3.65;;;;;;;23.03;62.10;101493.52;1797604;79;27483;-55
2022/08/09 00:03:10;;;;;;;6.53;3.33;;;;;;;23.09;62.23;101494.08;1797414;78;25818;-55
2022/08/09 00:05:37;;;;;;;4.78;3.87;;;;;;;23.09;61.81;101497.66;1789446;78;25752;-55
2022/08/09 00:08:09;;;;;;;6.70;3.52;;;;;;;23.09;61.78;101499.56;1785673;79;26604;-55
2022/08/09 00:10:34;;;;;;;7.58;3.40;;;;;;;23.11;62.11;101503.80;1804050;79;25751;-58
2022/08/09 00:13:01;;;;;;;5.00;3.52;;;;;;;23.14;61.86;101503.41;1801263;79;27390;-55
2022/08/09 00:15:28;;;;;;;4.72;3.33;;;;;;;23.18;61.71;101502.97;1800795;79;25699;-55
2022/08/09 00:17:55;;;;;;;5.90;3.60;;;;;;;23.12;61.65;101505.49;1801013;78;25799;-55
2022/08/09 00:20:22;;;;;;;6.35;3.98;;;;;;;22.93;61.52;101506.20;1800837;79;25806;-55
2022/08/09 00:22:49;;;;;;;7.90;4.47;;;;;;;22.74;62.04;101507.77;1801330;78;25715;-55
2022/08/09 00:25:16;;;;;;;10.75;4.40;;;;;;;22.54;62.83;101506.25;1800854;79;28390;-55
2022/08/09 00:27:43;;;;;;;10.68;4.78;;;;;;;22.41;63.14;101505.61;1800783;78;25639;-55
2022/08/09 00:30:12;;;;;;;5.15;4.47;;;;;;;22.32;63.12;101502.11;1800805;78;25766;-54
2022/08/09 00:32:40;;;;;;;9.28;4.60;;;;;;;22.28;63.30;101496.68;1800944;79;26668;-55
2022/08/09 00:35:08;;;;;;;7.15;4.95;;;;;;;22.23;63.51;101497.80;1800674;79;25688;-55
2022/08/09 00:37:35;;;;;;;7.37;4.37;;;;;;;22.18;63.78;101499.77;1801207;78;27398;-54
2022/08/09 00:40:03;;;;;;;6.67;4.53;;;;;;;22.12;63.99;101505.50;1800539;78;25697;-54
2022/08/09 00:42:31;;;;;;;7.55;4.28;;;;;;;22.13;64.25;101501.72;1800653;79;25794;-55
2022/08/09 00:44:57;;;;;;;6.05;4.10;;;;;;;22.12;64.31;101495.91;1801055;79;25768;-54
2022/08/09 00:47:24;;;;;;;5.60;4.10;;;;;;;22.20;64.72;101496.31;1801293;78;25691;-55
2022/08/09 00:49:53;;;;;;;7.85;3.90;;;;;;;22.29;64.65;101495.14;1772022;80;28522;-54
2022/08/09 00:52:21;;;;;;;6.12;3.90;;;;;;;22.41;64.62;101498.76;1748263;80;25779;-55
2022/08/09 00:54:50;;;;;;;7.62;3.60;;;;;;;22.49;64.19;101498.62;1772628;80;25652;-55
2022/08/09 00:57:16;;;;;;;6.08;3.77;;;;;;;22.54;64.21;101499.39;1772647;80;25827;-53
2022/08/09 00:59:45;;;;;;;6.22;3.92;;;;;;;22.59;64.04;101491.41;1772820;80;25703;-55
2022/08/09 01:02:19;;;;;;;8.03;3.80;;;;;;;22.67;63.80;101489.89;1772933;80;27508;-54
2022/08/09 01:05:04;;;;;;;9.30;3.70;;;;;;;22.71;63.67;101491.20;1772810;80;26460;-55
2022/08/09 01:07:39;;;;;;;6.83;4.25;;;;;;;22.73;63.58;101482.22;1772703;79;25777;-55
2022/08/09 01:10:55;;;;;;;5.28;3.72;;;;;;;22.73;63.61;101489.08;1772434;79;26335;-55
2022/08/09 01:13:50;;;;;;;9.45;4.22;;;;;;;22.74;63.61;101491.31;1772759;79;25788;-55
2022/08/09 01:16:21;;;;;;;4.42;3.58;;;;;;;22.74;63.46;101489.95;1800437;79;27476;-55
2022/08/09 01:18:52;;;;;;;5.97;3.80;;;;;;;22.73;63.20;101490.98;1810307;79;25666;-55
2022/08/09 01:21:45;;;;;;;8.73;3.87;;;;;;;22.72;63.37;101491.52;1810091;79;25471;-55
2022/08/09 01:24:26;;;;;;;10.53;4.40;;;;;;;22.59;63.38;101485.38;1811140;79;25936;-55
2022/08/09 01:27:06;;;;;;;5.00;4.10;;;;;;;22.46;63.70;101492.98;1811455;78;25987;-56
2022/08/09 01:29:47;;;;;;;7.10;4.15;;;;;;;22.33;63.92;101486.83;1812138;78;28254;-55
2022/08/09 01:32:18;;;;;;;5.95;4.67;;;;;;;22.22;64.05;101500.22;1811592;79;25523;-55
2022/08/09 01:34:48;;;;;;;5.35;4.08;;;;;;;22.11;64.20;101504.34;1811777;78;25663;-53
2022/08/09 01:37:17;;;;;;;5.92;4.35;;;;;;;21.98;64.67;101504.51;1812033;78;25857;-54
2022/08/09 01:39:47;;;;;;;8.63;4.35;;;;;;;21.83;65.40;101503.19;1811741;78;26091;-55
2022/08/09 01:42:16;;;;;;;4.28;3.80;;;;;;;21.72;65.73;101510.55;1811774;77;27645;-55
2022/08/09 01:44:44;;;;;;;4.90;4.25;;;;;;;21.57;66.42;101507.81;1811774;79;25726;-55
2022/08/09 01:47:13;;;;;;;7.78;4.28;;;;;;;21.45;67.34;101500.61;1811826;77;25782;-55
2022/08/09 01:49:41;;;;;;;4.97;4.20;;;;;;;21.32;68.12;101501.28;1772723;80;25790;-55
2022/08/09 01:52:12;;;;;;;5.50;4.33;;;;;;;21.21;68.39;101503.12;1816095;77;25754;-55
2022/08/09 01:54:50;;;;;;;5.45;4.40;;;;;;;21.11;68.45;101500.69;1836897;78;27359;-53
2022/08/09 01:57:22;;;;;;;5.20;4.70;;;;;;;21.03;69.43;101503.48;1836580;78;25814;-54
2022/08/09 01:59:53;;;;;;;8.78;4.72;;;;;;;20.91;69.51;101497.13;1835880;77;25481;-55
2022/08/09 02:02:24;;;;;;;4.87;3.85;;;;;;;20.82;70.75;101499.61;1836752;78;25900;-55
2022/08/09 02:04:53;;;;;;;5.78;4.45;;;;;;;20.77;70.10;101502.91;1836712;77;25779;-55
2022/08/09 02:07:25;;;;;;;8.73;4.42;;;;;;;20.73;70.70;101504.80;1834544;78;27418;-54
2022/08/09 02:10:06;;;;;;;7.47;4.80;;;;;;;20.72;70.32;101503.09;1772720;80;26288;-53
2022/08/09 02:12:34;;;;;;;6.90;4.50;;;;;;;20.73;70.69;101503.44;1771916;80;25758;-56
2022/08/09 02:15:04;;;;;;;8.45;4.70;;;;;;;20.73;70.34;101502.94;1802086;77;25771;-55
2022/08/09 02:17:32;;;;;;;7.42;4.20;;;;;;;20.75;70.50;101504.14;1800384;79;25745;-55
2022/08/09 02:20:00;;;;;;;6.95;4.40;;;;;;;20.71;70.83;101498.13;1800145;79;27452;-55
2022/08/09 02:22:41;;;;;;;12.78;5.17;;;;;;;20.68;70.86;101497.16;1800100;79;25710;-55
2022/08/09 02:25:16;;;;;;;6.85;5.33;;;;;;;20.65;71.22;101492.05;1810405;77;25765;-56
2022/08/09 02:27:48;;;;;;;8.45;4.65;;;;;;;20.62;71.12;101500.11;1772697;80;26738;-56
2022/08/09 02:30:16;;;;;;;8.00;5.15;;;;;;;20.58;71.39;101500.13;1811022;78;25795;-55
2022/08/09 02:32:47;;;;;;;11.18;4.55;;;;;;;20.56;71.14;101503.59;1773278;80;27515;-55
2022/08/09 02:35:23;;;;;;;8.63;4.65;;;;;;;20.60;70.99;101503.54;1811684;78;26287;-55
2022/08/09 02:37:55;;;;;;;9.13;4.62;;;;;;;20.63;71.01;101496.84;1772695;80;25817;-56
2022/08/09 02:40:24;;;;;;;11.22;4.80;;;;;;;20.60;71.11;101501.34;1811680;79;25928;-56
2022/08/09 02:42:54;;;;;;;6.87;4.97;;;;;;;20.61;71.04;101501.14;1772811;80;25727;-54
2022/08/09 02:45:34;;;;;;;13.15;4.53;;;;;;;20.64;71.11;101506.25;1811619;77;27637;-55
2022/08/09 02:48:05;;;;;;;6.25;4.50;;;;;;;20.61;71.67;101506.61;1809957;78;25806;-56
2022/08/09 02:50:39;;;;;;;9.60;5.40;;;;;;;20.54;71.42;101519.32;1809056;79;25766;-55
2022/08/09 02:53:23;;;;;;;8.13;4.87;;;;;;;20.46;71.74;101515.30;1799143;79;25974;-56
2022/08/09 02:55:52;;;;;;;5.55;4.87;;;;;;;20.37;72.29;101509.03;1799203;79;26120;-56
2022/08/09 02:58:22;;;;;;;5.72;4.85;;;;;;;20.30;72.83;101510.80;1799170;79;27496;-56
2022/08/09 03:00:50;;;;;;;13.43;4.90;;;;;;;20.25;72.69;101514.08;1799395;79;25484;-56
2022/08/09 03:03:20;;;;;;;8.90;5.08;;;;;;;20.18;73.18;101505.75;1799279;79;25722;-55
2022/08/09 03:05:51;;;;;;;10.48;4.80;;;;;;;20.16;73.29;101502.38;1799255;79;26022;-55
2022/08/09 03:08:20;;;;;;;8.25;5.17;;;;;;;20.14;73.29;101504.94;1799366;78;25682;-55
2022/08/09 03:10:49;;;;;;;8.55;5.35;;;;;;;20.11;73.64;101509.41;1798774;79;28224;-55
2022/08/09 03:13:19;;;;;;;15.93;8.05;;;;;;;20.05;73.88;101506.02;1799004;78;25695;-55
2022/08/09 03:15:47;;;;;;;10.55;5.15;;;;;;;20.04;73.71;101507.91;1798908;79;25781;-55
2022/08/09 03:18:15;;;;;;;7.90;5.08;;;;;;;20.07;74.05;101506.70;1798848;79;26748;-56
2022/08/09 03:20:44;;;;;;;6.25;4.67;;;;;;;20.03;74.23;101512.20;1799312;79;25690;-54
2022/08/09 03:23:12;;;;;;;14.85;6.12;;;;;;;20.03;73.96;101519.88;1799158;79;28174;-57
2022/08/09 03:25:41;;;;;;;8.18;4.42;;;;;;;20.06;74.31;101519.52;1805973;78;25780;-55
2022/08/09 03:28:11;;;;;;;6.65;5.37;;;;;;;20.07;73.79;101517.12;1795201;79;25719;-55
2022/08/09 03:30:39;;;;;;;6.35;4.78;;;;;;;20.06;73.85;101515.92;1806170;78;25445;-55
2022/08/09 03:33:08;;;;;;;14.68;4.97;;;;;;;20.05;73.75;101516.45;1806383;79;25446;-55
2022/08/09 03:35:36;;;;;;;8.63;5.58;;;;;;;20.07;73.89;101518.98;1806307;77;27515;-55
2022/08/09 03:38:03;;;;;;;7.90;4.97;;;;;;;20.07;73.61;101521.72;1806224;77;25814;-54
2022/08/09 03:40:31;;;;;;;16.97;6.03;;;;;;;20.09;73.78;101523.23;1806248;77;25681;-55
2022/08/09 03:42:58;;;;;;;7.97;4.90;;;;;;;20.12;73.50;101525.61;1806280;79;27884;-55
2022/08/09 03:45:27;;;;;;;8.05;5.70;;;;;;;20.17;73.38;101526.44;1804539;78;25818;-55
2022/08/09 03:47:54;;;;;;;7.10;5.00;;;;;;;20.23;73.59;101531.16;1788889;79;29609;-55
2022/08/09 03:50:24;;;;;;;10.93;5.03;;;;;;;20.16;73.79;101531.56;1799750;79;25485;-56
2022/08/09 03:52:53;;;;;;;8.00;4.85;;;;;;;20.12;73.69;101532.44;1799068;79;25691;-55
2022/08/09 03:55:21;;;;;;;10.43;5.35;;;;;;;20.14;73.71;101535.84;1794579;79;25871;-55
2022/08/09 03:57:49;;;;;;;16.97;5.25;;;;;;;20.22;73.57;101539.02;1794475;80;25750;-54
2022/08/09 04:00:18;;;;;;;8.50;5.20;;;;;;;20.26;73.20;101541.73;1794376;78;27514;-56
2022/08/09 04:02:46;;;;;;;10.25;5.35;;;;;;;20.29;73.12;101535.92;1794361;78;26137;-55
2022/08/09 04:05:14;;;;;;;11.15;5.15;;;;;;;20.30;73.16;101528.56;1794751;79;25458;-55
2022/08/09 04:07:41;;;;;;;14.28;5.35;;;;;;;20.26;73.60;101527.24;1789423;79;25947;-55
2022/08/09 04:10:08;;;;;;;6.33;4.80;;;;;;;20.26;73.51;101526.71;1771518;81;26012;-55
2022/08/09 04:12:49;;;;;;;14.00;5.22;;;;;;;20.34;73.72;101524.45;1771409;81;27520;-56
2022/08/09 04:15:20;;;;;;;8.53;5.47;;;;;;;20.39;73.58;101529.36;1772820;80;26110;-55
2022/08/09 04:17:48;;;;;;;7.72;4.50;;;;;;;20.43;73.68;101530.68;1773027;80;25709;-56
2022/08/09 04:20:16;;;;;;;8.58;5.15;;;;;;;20.46;73.53;101537.16;1772947;80;25870;-56
2022/08/09 04:22:45;;;;;;;9.68;4.97;;;;;;;20.43;73.41;101540.24;1773008;79;25943;-55
2022/08/09 04:25:12;;;;;;;11.03;5.45;;;;;;;20.43;73.49;101545.21;1773059;79;28330;-55
2022/08/09 04:27:42;;;;;;;11.90;5.60;;;;;;;20.37;74.00;101543.72;1761815;80;25762;-54
2022/08/09 04:30:16;;;;;;;11.03;6.35;;;;;;;20.37;73.92;101537.72;1761890;81;26593;-55
2022/08/09 04:32:43;;;;;;;12.45;8.03;;;;;;;20.42;73.73;101539.91;1762191;81;25773;-55
2022/08/09 04:35:13;;;;;;;8.43;5.92;;;;;;;20.48;73.72;101539.20;1762006;80;25701;-55
2022/08/09 04:37:39;;;;;;;13.18;6.03;;;;;;;20.57;73.49;101542.70;1762017;81;27446;-55
2022/08/09 04:40:10;;;;;;;9.35;5.90;;;;;;;20.68;73.20;101542.77;1761973;81;25705;-55
2022/08/09 04:42:36;;;;;;;8.85;5.45;;;;;;;20.75;72.93;101541.88;1762064;80;25821;-54
2022/08/09 04:45:04;;;;;;;12.43;6.10;;;;;;;20.81;72.80;101541.66;1761894;81;25763;-54
2022/08/09 04:47:32;;;;;;;9.78;6.47;;;;;;;20.84;72.68;101544.04;1761921;81;25992;-55
2022/08/09 04:49:59;;;;;;;15.70;6.70;;;;;;;20.80;72.57;101538.06;1764427;81;27495;-55
2022/08/09 04:52:28;;;;;;;14.90;5.87;;;;;;;20.74;72.79;101536.08;1762101;80;25953;-55
2022/08/09 04:54:58;;;;;;;14.78;5.30;;;;;;;20.77;73.61;101537.09;1762297;81;25850;-55
2022/08/09 04:57:27;;;;;;;7.58;5.25;;;;;;;20.83;73.19;101546.44;1761658;81;25837;-55
2022/08/09 04:59:56;;;;;;;12.30;5.90;;;;;;;20.90;72.97;101539.69;1762409;80;26339;-54
2022/08/09 05:02:23;;;;;;;9.83;5.10;;;;;;;20.99;73.05;101536.36;1762653;80;27480;-55
2022/08/09 05:04:51;;;;;;;8.55;5.25;;;;;;;21.08;73.38;101537.45;1762771;80;25956;-55
2022/08/09 05:07:18;;;;;;;5.58;3.72;;;;;;;21.14;72.69;101532.28;1761892;80;25743;-56
2022/08/09 05:09:46;;;;;;;12.30;4.53;;;;;;;21.21;72.80;101535.95;1740748;82;25783;-56
2022/08/09 05:12:13;;;;;;;11.88;4.65;;;;;;;21.26;72.28;101530.75;1738284;82;25957;-55
2022/08/09 05:14:42;;;;;;;10.20;5.00;;;;;;;21.32;72.21;101528.65;1736996;82;27443;-55
2022/08/09 05:17:10;;;;;;;8.70;4.53;;;;;;;21.35;71.73;101530.98;1738214;82;25728;-56
2022/08/09 05:19:36;;;;;;;7.75;4.47;;;;;;;21.35;71.62;101530.98;1783987;80;26346;-56
2022/08/09 05:22:06;;;;;;;8.03;4.90;;;;;;;21.39;71.79;101535.06;1783838;79;25888;-56
2022/08/09 05:24:33;;;;;;;12.65;4.97;;;;;;;21.42;71.73;101533.83;1797408;79;25768;-54
2022/08/09 05:27:00;;;;;;;8.53;5.17;;;;;;;21.46;71.62;101533.78;1804869;79;27618;-54
2022/08/09 05:29:27;;;;;;;8.58;4.78;;;;;;;21.51;71.56;101534.59;1806309;79;26066;-55
2022/08/09 05:31:58;;;;;;;15.08;9.10;;;;;;;21.58;71.51;101538.28;1807596;79;25464;-55
2022/08/09 05:34:26;;;;;;;6.60;5.25;;;;;;;21.64;71.29;101543.52;1806860;78;25849;-55
2022/08/09 05:36:55;;;;;;;7.22;4.80;;;;;;;21.73;71.36;101543.21;1807820;79;25441;-55
2022/08/09 05:39:22;;;;;;;8.13;4.90;;;;;;;21.81;70.68;101539.52;1807787;79;28400;-55
2022/08/09 05:41:50;;;;;;;7.05;5.10;;;;;;;21.87;70.46;101539.28;1807415;79;25817;-54
2022/08/09 05:44:17;;;;;;;8.03;5.30;;;;;;;21.93;70.55;101538.50;1807607;79;25792;-55
2022/08/09 05:46:45;;;;;;;11.50;5.67;;;;;;;22.00;70.43;101535.84;1802685;78;25810;-55
2022/08/09 05:49:12;;;;;;;7.12;5.30;;;;;;;22.09;69.97;101545.64;1804337;78;25683;-54
2022/08/09 05:51:39;;;;;;;13.75;9.15;;;;;;;22.17;69.60;101537.80;1817534;78;27633;-55
2022/08/09 05:54:06;;;;;;;17.73;6.10;;;;;;;22.22;69.33;101542.69;1804935;78;25770;-55
2022/08/09 05:56:33;;;;;;;11.08;5.85;;;;;;;22.28;69.20;101539.16;1800357;79;25545;-55
2022/08/09 05:59:00;;;;;;;12.35;5.85;;;;;;;22.32;68.91;101542.69;1800057;78;25930;-55
2022/08/09 06:01:28;;;;;;;14.60;6.00;;;;;;;22.33;68.38;101540.81;1800288;78;25980;-55
2022/08/09 06:03:56;;;;;;;10.15;6.55;;;;;;;22.40;68.57;101538.17;1799913;78;27438;-55
2022/08/09 06:06:23;;;;;;;10.08;6.45;;;;;;;22.44;68.42;101539.46;1800258;78;25780;-54
2022/08/09 06:08:51;;;;;;;5.87;5.12;;;;;;;22.48;68.44;101542.16;1808454;78;25731;-55
2022/08/09 06:11:18;;;;;;;8.68;5.37;;;;;;;22.55;68.19;101543.59;1772693;80;25769;-55
2022/08/09 06:13:45;;;;;;;7.78;5.90;;;;;;;22.59;67.97;101544.34;1811784;77;25743;-55
2022/08/09 06:16:12;;;;;;;5.83;4.85;;;;;;;22.65;67.67;101541.33;1772751;80;27633;-55
2022/08/09 06:18:39;;;;;;;11.60;5.25;;;;;;;22.71;67.55;101546.55;1771840;80;25660;-55
2022/08/09 06:21:06;;;;;;;9.05;5.45;;;;;;;22.85;67.66;101540.66;1808115;77;25789;-55
2022/08/09 06:23:34;;;;;;;10.35;5.67;;;;;;;22.97;67.01;101543.19;1818186;77;25777;-55
2022/08/09 06:26:01;;;;;;;7.80;5.22;;;;;;;23.11;66.36;101542.75;1814919;77;25837;-55
2022/08/09 06:28:28;;;;;;;12.37;5.40;;;;;;;23.22;65.95;101538.63;1816513;77;27500;-55
2022/08/09 06:30:54;;;;;;;14.40;5.50;;;;;;;23.34;66.03;101530.15;1783930;79;25775;-55
2022/08/09 06:33:21;;;;;;;18.05;5.17;;;;;;;23.51;65.58;101535.30;1774068;79;25851;-54
2022/08/09 06:35:48;;;;;;;10.18;4.92;;;;;;;23.65;65.52;101535.66;1820405;77;25976;-54
2022/08/09 06:38:16;;;;;;;16.52;5.97;;;;;;;23.81;65.39;101528.97;1810135;77;25767;-55
2022/08/09 06:40:43;;;;;;;12.47;6.83;;;;;;;23.97;65.14;101530.55;1812042;77;27511;-55
2022/08/09 06:43:12;;;;;;;12.93;5.92;;;;;;;24.07;64.69;101527.38;1809887;79;25725;-56
2022/08/09 06:45:39;;;;;;;11.55;5.28;;;;;;;24.17;63.86;101531.09;1809610;79;25723;-55
2022/08/09 06:48:06;;;;;;;12.68;5.50;;;;;;;24.23;63.82;101532.48;1809856;79;25724;-55
2022/08/09 06:50:33;;;;;;;11.28;5.03;;;;;;;24.25;63.15;101528.14;1802759;78;25788;-54
2022/08/09 06:53:00;;;;;;;9.15;5.75;;;;;;;24.29;63.00;101525.84;1802776;78;29558;-55
2022/08/09 06:55:30;;;;;;;8.25;5.40;;;;;;;24.26;62.88;101526.26;1799057;77;25786;-55
2022/08/09 06:57:56;;;;;;;6.70;5.22;;;;;;;24.27;62.80;101527.95;1803780;78;25696;-55
2022/08/09 07:00:24;;;;;;;11.63;6.00;;;;;;;24.30;62.86;101529.75;1803658;78;25885;-56
2022/08/09 07:02:52;;;;;;;18.80;6.05;;;;;;;24.26;62.89;101528.47;1798869;78;25761;-56
2022/08/09 07:05:19;;;;;;;9.83;6.17;;;;;;;24.33;62.90;101526.59;1806888;79;27432;-55
2022/08/09 07:07:46;;;;;;;12.53;5.47;;;;;;;24.42;62.56;101519.52;1802201;78;25742;-55
2022/08/09 07:10:13;;;;;;;11.25;5.30;;;;;;;24.49;62.42;101519.81;1807634;78;25750;-55
2022/08/09 07:12:40;;;;;;;11.22;4.97;;;;;;;24.56;62.50;101522.58;1811366;78;25838;-55
2022/08/09 07:15:09;;;;;;;10.43;5.97;;;;;;;24.64;62.52;101526.48;1809284;78;25771;-55
2022/08/09 07:17:36;;;;;;;7.08;5.15;;;;;;;24.75;62.66;101520.06;1809461;78;27392;-57
2022/08/09 07:20:05;;;;;;;7.35;5.17;;;;;;;24.85;62.00;101517.73;1799579;77;25735;-55
2022/08/09 07:22:33;;;;;;;9.08;4.58;;;;;;;24.93;61.73;101516.13;1785417;78;25801;-56
2022/08/09 07:25:06;;;;;;;10.78;5.20;;;;;;;24.99;61.37;101524.06;1802456;78;44719;-55
2022/08/09 07:27:32;;;;;;;13.68;5.70;;;;;;;25.06;61.79;101522.14;1806188;78;25697;-55
2022/08/09 07:30:01;;;;;;;17.98;6.37;;;;;;;25.14;61.33;101523.83;1806751;78;27454;-55
2022/08/09 07:32:29;;;;;;;10.85;5.72;;;;;;;25.21;60.74;101521.91;1808707;78;25788;-55
2022/08/09 07:34:56;;;;;;;11.10;5.58;;;;;;;25.31;60.53;101528.32;1803540;78;25698;-55
2022/08/09 07:37:23;;;;;;;14.98;5.92;;;;;;;25.29;60.54;101529.06;1802874;78;25817;-55
2022/08/09 07:39:50;;;;;;;9.38;6.10;;;;;;;25.29;60.26;101533.19;1806860;78;25750;-55
2022/08/09 07:42:17;;;;;;;9.08;5.37;;;;;;;25.33;59.69;101528.95;1803280;78;27471;-55
2022/08/09 07:44:44;;;;;;;16.32;5.70;;;;;;;25.41;59.22;101527.38;1800558;79;25798;-55
2022/08/09 07:47:11;;;;;;;10.90;6.25;;;;;;;25.45;59.32;101527.78;1796454;78;25745;-55
2022/08/09 07:49:38;;;;;;;7.65;5.60;;;;;;;25.44;59.56;101532.45;1823510;78;26449;-54
2022/08/09 07:52:06;;;;;;;13.10;5.50;;;;;;;25.48;59.42;101521.84;1833856;78;27281;-56
2022/08/09 07:54:33;;;;;;;12.80;5.95;;;;;;;25.52;59.48;101527.77;1834306;78;28464;-55
2022/08/09 07:57:00;;;;;;;10.43;5.97;;;;;;;25.56;59.27;101524.87;1834285;78;25766;-56
2022/08/09 07:59:27;;;;;;;9.65;5.37;;;;;;;25.61;59.00;101524.53;1822220;78;25760;-55
2022/08/09 08:01:54;;;;;;;10.72;6.08;;;;;;;25.68;59.14;101521.75;1771653;80;25801;-55
2022/08/09 08:04:22;;;;;;;13.65;5.62;;;;;;;25.73;58.94;101517.80;1772643;80;25751;-55
2022/08/09 08:06:49;;;;;;;8.28;5.60;;;;;;;25.76;58.82;101522.88;1772560;80;27455;-54
2022/08/09 08:09:16;;;;;;;10.53;5.53;;;;;;;25.84;58.53;101521.79;1811485;78;25658;-55
2022/08/09 08:11:44;;;;;;;9.65;5.70;;;;;;;25.96;58.40;101517.80;1773123;80;25688;-55
2022/08/09 08:14:11;;;;;;;11.48;6.12;;;;;;;26.04;57.88;101516.16;1811477;77;25851;-55
2022/08/09 08:16:38;;;;;;;7.55;5.30;;;;;;;26.08;58.13;101507.80;1772931;80;25439;-54
2022/08/09 08:19:05;;;;;;;9.90;5.28;;;;;;;26.25;57.62;101519.66;1815631;77;27442;-56
2022/08/09 08:21:33;;;;;;;7.45;5.53;;;;;;;26.35;57.29;101523.30;1816191;77;27237;-56
2022/08/09 08:24:00;;;;;;;10.70;5.92;;;;;;;26.44;56.80;101519.74;1769830;80;26253;-55
2022/08/09 08:26:28;;;;;;;10.48;5.70;;;;;;;26.52;56.71;101520.29;1802330;78;26200;-56
2022/08/09 08:28:55;;;;;;;8.85;6.00;;;;;;;26.64;56.30;101523.70;1814452;77;25734;-56
2022/08/09 08:31:21;;;;;;;10.03;5.53;;;;;;;26.72;56.06;101524.25;1808760;78;27453;-55
2022/08/09 08:33:48;;;;;;;10.43;6.30;;;;;;;26.83;56.40;101517.20;1809485;77;27233;-55
2022/08/09 08:36:15;;;;;;;47.67;34.25;;;;;;;26.94;55.75;101516.14;1769800;79;25676;-57
2022/08/09 08:38:43;;;;;;;24.85;20.05;;;;;;;27.02;55.63;101521.37;1761122;79;25797;-55
2022/08/09 08:41:10;;;;;;;9.40;5.40;;;;;;;27.10;55.21;101515.55;1760740;79;26059;-56
2022/08/09 08:43:38;;;;;;;14.73;6.10;;;;;;;27.11;54.87;101514.48;1803373;78;27458;-56
2022/08/09 08:46:09;;;;;;;8.30;5.90;;;;;;;27.21;54.46;101515.31;1768997;79;25797;-56
2022/08/09 08:48:39;;;;;;;14.33;5.30;;;;;;;27.33;54.25;101514.86;1814455;78;25770;-55
2022/08/09 08:51:06;;;;;;;11.97;5.15;;;;;;;27.46;53.84;101515.79;1772619;80;25967;-56
2022/08/09 08:53:34;;;;;;;9.85;5.62;;;;;;;27.54;53.50;101513.26;1769971;79;25736;-55
2022/08/09 08:56:02;;;;;;;14.55;5.62;;;;;;;27.64;53.80;101521.84;1742397;80;28319;-55
2022/08/09 08:58:31;;;;;;;9.20;5.62;;;;;;;27.80;53.44;101512.91;1771849;79;25847;-55
2022/08/09 09:01:02;;;;;;;13.38;6.80;;;;;;;27.98;52.88;101510.30;1773003;80;25774;-54
2022/08/09 09:03:34;;;;;;;11.10;5.12;;;;;;;28.06;52.44;101512.77;1773165;80;26525;-55
2022/08/09 09:06:03;;;;;;;13.50;6.15;;;;;;;28.23;51.76;101504.13;1735792;81;25914;-57
2022/08/09 09:08:34;;;;;;;9.10;4.90;;;;;;;28.37;51.60;101510.81;1746564;81;27498;-56
2022/08/09 09:11:04;;;;;;;11.35;5.15;;;;;;;28.52;51.42;101508.42;1749579;81;26352;-56
2022/08/09 09:13:40;;;;;;;6.12;4.50;;;;;;;28.63;50.50;101506.77;1731560;82;25720;-56
2022/08/09 09:16:09;;;;;;;9.38;4.78;;;;;;;28.73;50.10;101504.25;1753863;79;25911;-56
2022/08/09 09:18:35;;;;;;;9.63;5.58;;;;;;;28.84;50.66;101507.27;1784918;78;25786;-56
2022/08/09 09:21:07;;;;;;;10.90;5.12;;;;;;;28.96;50.05;101497.56;1746306;79;27442;-56
2022/08/09 09:23:43;;;;;;;16.50;5.33;;;;;;;29.05;49.42;101501.64;1746802;80;25788;-56
2022/08/09 09:26:14;;;;;;;10.23;5.30;;;;;;;29.28;49.36;101500.77;1736784;80;25815;-56
2022/08/09 09:28:46;;;;;;;8.60;5.10;;;;;;;29.40;48.23;101502.17;1742814;80;25785;-56
2022/08/09 09:31:16;;;;;;;11.88;4.50;;;;;;;29.72;48.37;101499.48;1735749;82;25744;-56
2022/08/09 09:33:43;;;;;;;6.62;4.53;;;;;;;30.12;47.46;101499.95;1731897;82;27648;-56
2022/08/09 09:36:12;;;;;;;10.20;4.50;;;;;;;30.64;46.83;101497.52;1732154;81;25755;-56
2022/08/09 09:38:55;;;;;;;6.97;4.85;;;;;;;31.18;44.88;101495.53;1726420;80;26352;-56
2022/08/09 09:41:26;;;;;;;11.10;5.22;;;;;;;31.67;43.47;101498.93;1732230;82;25887;-56
2022/08/09 09:44:00;;;;;;;12.03;4.40;;;;;;;32.02;42.80;101496.80;1726689;79;25804;-56
2022/08/09 09:46:31;;;;;;;9.15;4.45;;;;;;;32.46;42.90;101499.43;1768614;80;27522;-56
2022/08/09 09:49:07;;;;;;;9.05;4.87;;;;;;;32.70;41.16;101493.45;1769907;79;25767;-56
2022/08/09 09:51:37;;;;;;;7.30;4.05;;;;;;;33.06;41.00;101497.05;1737128;80;25736;-56
2022/08/09 09:54:10;;;;;;;8.23;4.80;;;;;;;33.28;39.49;101493.23;1745003;80;25960;-56
2022/08/09 09:56:41;;;;;;;8.78;4.22;;;;;;;33.45;39.51;101493.06;1745535;81;25770;-56
2022/08/09 09:59:10;;;;;;;8.90;4.15;;;;;;;33.64;38.81;101489.20;1755418;81;27511;-56
2022/08/09 10:01:39;;;;;;;10.72;4.37;;;;;;;33.98;39.43;101478.96;1747889;80;25843;-56
2022/08/09 10:04:15;;;;;;;6.45;4.30;;;;;;;34.11;37.89;101477.60;1753219;81;25816;-56
2022/08/09 10:06:45;;;;;;;9.33;4.25;;;;;;;34.08;37.59;101476.75;1751233;81;25869;-57
2022/08/09 10:09:14;;;;;;;15.00;3.85;;;;;;;34.52;36.92;101473.41;1750960;80;25735;-56
2022/08/09 10:11:42;;;;;;;10.60;4.00;;;;;;;34.79;36.15;101470.27;1748654;81;27588;-57
2022/08/09 10:14:25;;;;;;;8.35;3.70;;;;;;;35.03;35.95;101468.83;1741116;81;25779;-57
2022/08/09 10:16:53;;;;;;;7.58;4.12;;;;;;;35.02;35.13;101476.94;1752715;81;25747;-57
2022/08/09 10:19:20;;;;;;;10.03;3.75;;;;;;;35.23;36.00;101479.11;1741688;81;25892;-57
2022/08/09 10:21:49;;;;;;;7.97;3.55;;;;;;;35.68;33.89;101472.99;1757637;81;25436;-58
2022/08/09 10:24:19;;;;;;;10.68;3.58;;;;;;;35.44;34.92;101469.23;1731409;81;28141;-57
2022/08/09 10:26:47;;;;;;;9.58;3.98;;;;;;;35.82;34.25;101467.58;1750559;81;25791;-57
2022/08/09 10:29:14;;;;;;;9.00;3.47;;;;;;;35.55;34.56;101475.88;1758228;79;25905;-56
2022/08/09 10:31:42;;;;;;;8.20;3.40;;;;;;;35.70;35.38;101465.73;1763848;81;25809;-57
2022/08/09 10:34:12;;;;;;;12.35;3.77;;;;;;;36.37;33.13;101468.58;1756574;81;25770;-58
2022/08/09 10:36:41;;;;;;;7.62;3.20;;;;;;;36.85;34.00;101467.23;1753175;81;27575;-56
2022/08/09 10:39:11;;;;;;;9.30;3.33;;;;;;;37.49;32.21;101462.01;1753354;81;25798;-55
2022/08/09 10:41:39;;;;;;;6.60;3.55;;;;;;;37.11;32.09;101472.59;1742093;80;25835;-56
2022/08/09 10:44:06;;;;;;;17.77;3.90;;;;;;;37.13;32.08;101459.08;1723376;82;25808;-55
2022/08/09 10:46:50;;;;;;;10.48;3.70;;;;;;;37.53;31.74;101456.04;1800826;79;26419;-56
2022/08/09 10:49:46;;;;;;;7.78;3.40;;;;;;;37.97;31.84;101449.78;1814526;79;27486;-56
2022/08/09 10:52:41;;;;;;;10.13;3.40;;;;;;;38.29;29.90;101446.68;1807111;79;25730;-57
2022/08/09 10:55:30;;;;;;;10.13;3.83;;;;;;;38.45;30.48;101436.87;1804724;78;25727;-57
2022/08/09 10:57:58;;;;;;;14.15;3.62;;;;;;;38.77;29.07;101440.73;1805891;78;25934;-57
2022/08/09 11:00:36;;;;;;;8.98;3.42;;;;;;;38.90;29.41;101427.03;1805881;79;25719;-57
2022/08/09 11:03:10;;;;;;;7.00;3.55;;;;;;;38.96;29.53;101429.39;1806099;79;27457;-55
2022/08/09 11:05:36;;;;;;;10.35;3.50;;;;;;;38.93;28.73;101422.16;1801888;78;26674;-55
2022/08/09 11:08:42;;;;;;;8.45;4.45;;;;;;;39.24;28.39;101418.69;1759851;79;25780;-55
2022/08/09 11:11:09;;;;;;;8.83;3.10;;;;;;;39.32;28.36;101419.92;1751695;80;25786;-56
2022/08/09 11:13:37;;;;;;;5.85;2.95;;;;;;;39.47;28.25;101415.36;1765488;81;25708;-56
2022/08/09 11:16:35;;;;;;;6.05;3.10;;;;;;;39.68;28.12;101415.69;1765521;79;27628;-56
2022/08/09 11:19:06;;;;;;;8.00;3.30;;;;;;;40.10;27.76;101414.09;1753189;81;25806;-56
2022/08/09 11:21:57;;;;;;;3.52;2.90;;;;;;;40.40;26.23;101416.42;1759373;81;25684;-56
2022/08/09 11:24:24;;;;;;;4.78;3.37;;;;;;;40.18;26.63;101408.27;1753825;80;26170;-57
2022/08/09 11:26:51;;;;;;;3.83;2.80;;;;;;;40.37;27.07;101413.09;1751119;80;25797;-57
2022/08/09 11:29:52;;;;;;;3.95;3.00;;;;;;;40.37;26.25;101406.05;1750983;81;27476;-56
2022/08/09 11:32:42;;;;;;;4.22;3.40;;;;;;;40.37;26.57;101410.28;1755563;80;26057;-59
2022/08/09 11:35:17;;;;;;;9.98;3.08;;;;;;;40.22;26.76;101405.89;1726103;81;25884;-57